sensor_id;sensor_type;location;lat;lon;timestamp;temperature;humidity
20714;DHT22;10518;50.742;4.226;2022-08-19T00:02:25;20.40;99.90
20714;DHT22;10518;50.742;4.226;2022-08-19T00:04:50;20.40;99.90
20714;DHT22;10518;50.742;4.226;2022-08-19T00:07:18;20.40;99.90
20714;DHT22;10518;50.742;4.226;2022-08-19T00:09:44;20.40;99.90
20714;DHT22;10518;50.742;4.226;2022-08-19T00:12:10;20.40;99.90
20714;DHT22;10518;50.742;4.226;2022-08-19T00:14:36;20.40;99.90
20714;DHT22;10518;50.742;4.226;2022-08-19T00:17:04;20.40;99.90
20714;DHT22;10518;50.742;4.226;2022-08-19T00:19:32;20.40;99.90
20714;DHT22;10518;50.742;4.226;2022-08-19T00:21:58;20.30;99.90
20714;DHT22;10518;50.742;4.226;2022-08-19T00:24:24;20.30;99.90
20714;DHT22;10518;50.742;4.226;2022-08-19T00:26:51;20.30;99.90
20714;DHT22;10518;50.742;4.226;2022-08-19T00:29:18;20.30;99.90
20714;DHT22;10518;50.742;4.226;2022-08-19T00:31:45;20.30;99.90
20714;DHT22;10518;50.742;4.226;2022-08-19T00:34:13;20.30;99.90
20714;DHT22;10518;50.742;4.226;2022-08-19T00:36:39;20.40;99.90
20714;DHT22;10518;50.742;4.226;2022-08-19T00:39:06;20.30;99.90
20714;DHT22;10518;50.742;4.226;2022-08-19T00:41:32;20.40;99.90
20714;DHT22;10518;50.742;4.226;2022-08-19T00:46:30;20.40;99.90
20714;DHT22;10518;50.742;4.226;2022-08-19T00:48:56;20.40;99.90
20714;DHT22;10518;50.742;4.226;2022-08-19T00:51:25;20.40;99.90
20714;DHT22;10518;50.742;4.226;2022-08-19T00:53:51;20.40;99.90
20714;DHT22;10518;50.742;4.226;2022-08-19T00:56:17;20.40;99.90
20714;DHT22;10518;50.742;4.226;2022-08-19T00:58:43;20.40;99.90
20714;DHT22;10518;50.742;4.226;2022-08-19T01:01:09;20.40;99.90
20714;DHT22;10518;50.742;4.226;2022-08-19T01:03:35;20.40;99.90
20714;DHT22;10518;50.742;4.226;2022-08-19T01:06:01;20.40;99.90
20714;DHT22;10518;50.742;4.226;2022-08-19T01:08:26;20.40;99.90
20714;DHT22;10518;50.742;4.226;2022-08-19T01:10:55;20.30;99.90
20714;DHT22;10518;50.742;4.226;2022-08-19T01:13:25;20.30;99.90
20714;DHT22;10518;50.742;4.226;2022-08-19T01:15:56;20.20;99.90
20714;DHT22;10518;50.742;4.226;2022-08-19T01:18:23;20.20;99.90
20714;DHT22;10518;50.742;4.226;2022-08-19T01:20:52;20.20;99.90
20714;DHT22;10518;50.742;4.226;2022-08-19T01:23:19;20.50;99.90
20714;DHT22;10518;50.742;4.226;2022-08-19T01:25:48;20.50;99.90
20714;DHT22;10518;50.742;4.226;2022-08-19T01:28:18;20.50;99.90
20714;DHT22;10518;50.742;4.226;2022-08-19T01:30:45;20.50;99.90
20714;DHT22;10518;50.742;4.226;2022-08-19T01:33:12;20.50;99.90
20714;DHT22;10518;50.742;4.226;2022-08-19T01:35:37;20.50;99.90
20714;DHT22;10518;50.742;4.226;2022-08-19T01:38:06;20.60;99.90
20714;DHT22;10518;50.742;4.226;2022-08-19T01:40:34;20.40;99.90
20714;DHT22;10518;50.742;4.226;2022-08-19T01:43:02;20.30;99.90
20714;DHT22;10518;50.742;4.226;2022-08-19T01:45:30;20.10;99.90
20714;DHT22;10518;50.742;4.226;2022-08-19T01:47:57;19.90;99.90
20714;DHT22;10518;50.742;4.226;2022-08-19T01:50:23;19.80;99.90
20714;DHT22;10518;50.742;4.226;2022-08-19T01:52:48;19.80;99.90
20714;DHT22;10518;50.742;4.226;2022-08-19T01:55:18;19.70;99.90
20714;DHT22;10518;50.742;4.226;2022-08-19T01:57:48;19.60;99.90
20714;DHT22;10518;50.742;4.226;2022-08-19T02:00:17;19.60;99.90
20714;DHT22;10518;50.742;4.226;2022-08-19T02:02:43;19.70;99.90
20714;DHT22;10518;50.742;4.226;2022-08-19T02:05:09;19.60;99.90
20714;DHT22;10518;50.742;4.226;2022-08-19T02:07:35;19.60;99.90
20714;DHT22;10518;50.742;4.226;2022-08-19T02:10:05;19.60;99.90
20714;DHT22;10518;50.742;4.226;2022-08-19T02:12:31;19.60;99.90
20714;DHT22;10518;50.742;4.226;2022-08-19T02:14:56;19.60;99.90
20714;DHT22;10518;50.742;4.226;2022-08-19T02:17:22;19.60;99.90
20714;DHT22;10518;50.742;4.226;2022-08-19T02:19:47;19.50;99.90
20714;DHT22;10518;50.742;4.226;2022-08-19T02:22:14;19.40;99.90
20714;DHT22;10518;50.742;4.226;2022-08-19T02:24:40;19.30;99.90
20714;DHT22;10518;50.742;4.226;2022-08-19T02:27:05;19.30;99.90
20714;DHT22;10518;50.742;4.226;2022-08-19T02:29:31;19.30;99.90
20714;DHT22;10518;50.742;4.226;2022-08-19T02:31:57;19.20;99.90
20714;DHT22;10518;50.742;4.226;2022-08-19T02:34:23;19.10;99.90
20714;DHT22;10518;50.742;4.226;2022-08-19T02:36:50;19.10;99.90
20714;DHT22;10518;50.742;4.226;2022-08-19T02:39:16;19.10;99.90
20714;DHT22;10518;50.742;4.226;2022-08-19T02:41:42;19.00;99.90
20714;DHT22;10518;50.742;4.226;2022-08-19T02:44:07;19.00;99.90
20714;DHT22;10518;50.742;4.226;2022-08-19T02:46:34;19.00;99.90
20714;DHT22;10518;50.742;4.226;2022-08-19T02:49:02;18.90;99.90
20714;DHT22;10518;50.742;4.226;2022-08-19T02:51:32;18.90;99.90
20714;DHT22;10518;50.742;4.226;2022-08-19T02:53:58;18.80;99.90
20714;DHT22;10518;50.742;4.226;2022-08-19T02:56:25;18.90;99.90
20714;DHT22;10518;50.742;4.226;2022-08-19T02:58:56;18.90;99.90
20714;DHT22;10518;50.742;4.226;2022-08-19T03:01:24;18.80;99.90
20714;DHT22;10518;50.742;4.226;2022-08-19T03:03:51;18.80;99.90
20714;DHT22;10518;50.742;4.226;2022-08-19T03:06:16;18.80;99.90
20714;DHT22;10518;50.742;4.226;2022-08-19T03:08:44;18.70;99.90
20714;DHT22;10518;50.742;4.226;2022-08-19T03:11:22;18.70;99.90
20714;DHT22;10518;50.742;4.226;2022-08-19T03:13:49;18.70;99.90
20714;DHT22;10518;50.742;4.226;2022-08-19T03:16:20;18.60;99.90
20714;DHT22;10518;50.742;4.226;2022-08-19T03:18:46;18.60;99.90
20714;DHT22;10518;50.742;4.226;2022-08-19T03:21:25;18.70;99.90
20714;DHT22;10518;50.742;4.226;2022-08-19T03:23:55;18.60;99.90
20714;DHT22;10518;50.742;4.226;2022-08-19T03:26:21;18.60;99.90
20714;DHT22;10518;50.742;4.226;2022-08-19T03:28:47;18.60;99.90
20714;DHT22;10518;50.742;4.226;2022-08-19T03:31:16;18.60;99.90
20714;DHT22;10518;50.742;4.226;2022-08-19T03:33:42;18.50;99.90
20714;DHT22;10518;50.742;4.226;2022-08-19T03:36:18;18.50;99.90
20714;DHT22;10518;50.742;4.226;2022-08-19T03:38:49;18.40;99.90
20714;DHT22;10518;50.742;4.226;2022-08-19T03:41:18;18.50;99.90
20714;DHT22;10518;50.742;4.226;2022-08-19T03:43:45;18.50;99.90
20714;DHT22;10518;50.742;4.226;2022-08-19T03:46:21;18.50;99.90
20714;DHT22;10518;50.742;4.226;2022-08-19T03:48:47;18.50;99.90
20714;DHT22;10518;50.742;4.226;2022-08-19T03:51:19;18.50;99.90
20714;DHT22;10518;50.742;4.226;2022-08-19T03:53:46;18.50;99.90
20714;DHT22;10518;50.742;4.226;2022-08-19T03:56:13;18.40;99.90
20714;DHT22;10518;50.742;4.226;2022-08-19T03:58:39;18.40;99.90
20714;DHT22;10518;50.742;4.226;2022-08-19T04:01:13;18.40;99.90
20714;DHT22;10518;50.742;4.226;2022-08-19T04:03:39;18.40;99.90
20714;DHT22;10518;50.742;4.226;2022-08-19T04:06:19;18.30;99.90
20714;DHT22;10518;50.742;4.226;2022-08-19T04:08:47;18.30;99.90
20714;DHT22;10518;50.742;4.226;2022-08-19T04:11:16;18.30;99.90
20714;DHT22;10518;50.742;4.226;2022-08-19T04:13:42;18.30;99.90
20714;DHT22;10518;50.742;4.226;2022-08-19T04:16:11;18.30;99.90
20714;DHT22;10518;50.742;4.226;2022-08-19T04:18:38;18.30;99.90
20714;DHT22;10518;50.742;4.226;2022-08-19T04:21:06;18.30;99.90
20714;DHT22;10518;50.742;4.226;2022-08-19T04:23:32;18.40;99.90
20714;DHT22;10518;50.742;4.226;2022-08-19T04:25:59;18.40;99.90
20714;DHT22;10518;50.742;4.226;2022-08-19T04:28:25;18.30;99.90
20714;DHT22;10518;50.742;4.226;2022-08-19T04:30:53;18.30;99.90
20714;DHT22;10518;50.742;4.226;2022-08-19T04:33:21;18.30;99.90
20714;DHT22;10518;50.742;4.226;2022-08-19T04:35:49;18.30;99.90
20714;DHT22;10518;50.742;4.226;2022-08-19T04:38:17;18.20;99.90
20714;DHT22;10518;50.742;4.226;2022-08-19T04:40:45;18.20;99.90
20714;DHT22;10518;50.742;4.226;2022-08-19T04:43:30;18.10;99.90
20714;DHT22;10518;50.742;4.226;2022-08-19T04:45:56;18.20;99.90
20714;DHT22;10518;50.742;4.226;2022-08-19T04:48:22;18.20;99.90
20714;DHT22;10518;50.742;4.226;2022-08-19T04:50:55;18.10;99.90
20714;DHT22;10518;50.742;4.226;2022-08-19T04:53:27;18.10;99.90
20714;DHT22;10518;50.742;4.226;2022-08-19T04:55:54;18.10;99.90
20714;DHT22;10518;50.742;4.226;2022-08-19T04:58:20;18.10;99.90
20714;DHT22;10518;50.742;4.226;2022-08-19T05:00:46;18.00;99.90
20714;DHT22;10518;50.742;4.226;2022-08-19T05:03:11;18.00;99.90
20714;DHT22;10518;50.742;4.226;2022-08-19T05:05:42;18.10;99.90
20714;DHT22;10518;50.742;4.226;2022-08-19T05:08:09;18.10;99.90
20714;DHT22;10518;50.742;4.226;2022-08-19T05:10:36;18.10;99.90
20714;DHT22;10518;50.742;4.226;2022-08-19T05:13:03;18.10;99.90
20714;DHT22;10518;50.742;4.226;2022-08-19T05:15:29;18.10;99.90
20714;DHT22;10518;50.742;4.226;2022-08-19T05:17:54;18.20;99.90
20714;DHT22;10518;50.742;4.226;2022-08-19T05:20:39;18.20;99.90
20714;DHT22;10518;50.742;4.226;2022-08-19T05:23:23;18.10;99.90
20714;DHT22;10518;50.742;4.226;2022-08-19T05:25:50;18.30;99.90
20714;DHT22;10518;50.742;4.226;2022-08-19T05:28:16;18.40;99.90
20714;DHT22;10518;50.742;4.226;2022-08-19T05:30:41;18.50;99.90
20714;DHT22;10518;50.742;4.226;2022-08-19T05:33:10;18.60;99.90
20714;DHT22;10518;50.742;4.226;2022-08-19T05:35:38;18.70;99.90
20714;DHT22;10518;50.742;4.226;2022-08-19T05:38:05;18.80;99.90
20714;DHT22;10518;50.742;4.226;2022-08-19T05:40:34;19.00;99.90
20714;DHT22;10518;50.742;4.226;2022-08-19T05:43:01;19.20;99.90
20714;DHT22;10518;50.742;4.226;2022-08-19T05:45:27;19.40;99.90
20714;DHT22;10518;50.742;4.226;2022-08-19T05:47:53;19.60;99.90
20714;DHT22;10518;50.742;4.226;2022-08-19T05:50:19;19.60;99.90
20714;DHT22;10518;50.742;4.226;2022-08-19T05:52:45;19.90;99.90
20714;DHT22;10518;50.742;4.226;2022-08-19T05:55:10;20.00;99.90
20714;DHT22;10518;50.742;4.226;2022-08-19T05:57:36;20.20;99.90
20714;DHT22;10518;50.742;4.226;2022-08-19T06:00:05;20.10;99.90
20714;DHT22;10518;50.742;4.226;2022-08-19T06:02:34;20.10;99.90
20714;DHT22;10518;50.742;4.226;2022-08-19T06:05:01;20.00;99.90
20714;DHT22;10518;50.742;4.226;2022-08-19T06:07:28;20.10;99.90
20714;DHT22;10518;50.742;4.226;2022-08-19T06:09:54;20.00;99.90
20714;DHT22;10518;50.742;4.226;2022-08-19T06:12:20;20.10;99.90
20714;DHT22;10518;50.742;4.226;2022-08-19T06:14:51;20.20;99.90
20714;DHT22;10518;50.742;4.226;2022-08-19T06:17:18;20.90;99.90
20714;DHT22;10518;50.742;4.226;2022-08-19T06:19:43;21.80;99.90
20714;DHT22;10518;50.742;4.226;2022-08-19T06:22:09;22.50;99.90
20714;DHT22;10518;50.742;4.226;2022-08-19T06:24:37;23.00;99.90
20714;DHT22;10518;50.742;4.226;2022-08-19T06:27:03;23.10;99.90
20714;DHT22;10518;50.742;4.226;2022-08-19T06:29:31;23.10;99.90
20714;DHT22;10518;50.742;4.226;2022-08-19T06:31:59;23.10;99.90
20714;DHT22;10518;50.742;4.226;2022-08-19T06:34:27;23.20;99.90
20714;DHT22;10518;50.742;4.226;2022-08-19T06:36:54;23.00;99.90
20714;DHT22;10518;50.742;4.226;2022-08-19T06:39:26;22.80;99.90
20714;DHT22;10518;50.742;4.226;2022-08-19T06:41:55;22.90;99.90
20714;DHT22;10518;50.742;4.226;2022-08-19T06:44:24;22.50;99.90
20714;DHT22;10518;50.742;4.226;2022-08-19T06:46:51;22.20;99.90
20714;DHT22;10518;50.742;4.226;2022-08-19T06:49:17;22.00;99.90
20714;DHT22;10518;50.742;4.226;2022-08-19T06:51:45;22.10;99.90
20714;DHT22;10518;50.742;4.226;2022-08-19T06:54:12;21.90;99.90
20714;DHT22;10518;50.742;4.226;2022-08-19T06:56:38;21.90;99.90
20714;DHT22;10518;50.742;4.226;2022-08-19T06:59:07;22.00;99.90
20714;DHT22;10518;50.742;4.226;2022-08-19T07:01:37;22.00;99.90
20714;DHT22;10518;50.742;4.226;2022-08-19T07:04:06;22.00;99.90
20714;DHT22;10518;50.742;4.226;2022-08-19T07:06:32;22.10;99.90
20714;DHT22;10518;50.742;4.226;2022-08-19T07:08:58;22.20;99.90
20714;DHT22;10518;50.742;4.226;2022-08-19T07:11:24;22.30;99.90
20714;DHT22;10518;50.742;4.226;2022-08-19T07:13:50;22.30;99.90
20714;DHT22;10518;50.742;4.226;2022-08-19T07:16:18;22.30;99.90
20714;DHT22;10518;50.742;4.226;2022-08-19T07:18:48;22.30;99.90
20714;DHT22;10518;50.742;4.226;2022-08-19T07:21:17;22.60;99.90
20714;DHT22;10518;50.742;4.226;2022-08-19T07:23:44;22.60;99.90
20714;DHT22;10518;50.742;4.226;2022-08-19T07:26:16;22.40;99.90
20714;DHT22;10518;50.742;4.226;2022-08-19T07:28:43;22.40;99.90
20714;DHT22;10518;50.742;4.226;2022-08-19T07:31:16;22.40;99.90
20714;DHT22;10518;50.742;4.226;2022-08-19T07:33:43;22.60;99.90
20714;DHT22;10518;50.742;4.226;2022-08-19T07:36:10;22.60;99.90
20714;DHT22;10518;50.742;4.226;2022-08-19T07:38:37;23.00;99.90
20714;DHT22;10518;50.742;4.226;2022-08-19T07:41:05;23.10;99.90
20714;DHT22;10518;50.742;4.226;2022-08-19T07:43:30;23.00;99.90
20714;DHT22;10518;50.742;4.226;2022-08-19T07:45:56;23.10;99.90
20714;DHT22;10518;50.742;4.226;2022-08-19T07:48:26;23.00;99.90
20714;DHT22;10518;50.742;4.226;2022-08-19T07:50:57;22.80;99.90
20714;DHT22;10518;50.742;4.226;2022-08-19T07:53:25;23.10;99.90
20714;DHT22;10518;50.742;4.226;2022-08-19T07:55:51;23.10;99.90
20714;DHT22;10518;50.742;4.226;2022-08-19T07:58:20;22.90;99.90
20714;DHT22;10518;50.742;4.226;2022-08-19T08:00:48;22.90;99.90
20714;DHT22;10518;50.742;4.226;2022-08-19T08:03:15;22.90;99.90
20714;DHT22;10518;50.742;4.226;2022-08-19T08:05:42;22.90;99.90
20714;DHT22;10518;50.742;4.226;2022-08-19T08:08:27;22.80;99.90
20714;DHT22;10518;50.742;4.226;2022-08-19T08:11:12;22.60;99.90
20714;DHT22;10518;50.742;4.226;2022-08-19T08:13:38;22.80;99.90
20714;DHT22;10518;50.742;4.226;2022-08-19T08:16:06;23.00;99.90
20714;DHT22;10518;50.742;4.226;2022-08-19T08:18:33;23.10;99.90
20714;DHT22;10518;50.742;4.226;2022-08-19T08:20:59;23.20;99.90
20714;DHT22;10518;50.742;4.226;2022-08-19T08:23:25;23.40;99.90
20714;DHT22;10518;50.742;4.226;2022-08-19T08:25:53;23.30;99.90
20714;DHT22;10518;50.742;4.226;2022-08-19T08:28:20;23.30;99.90
20714;DHT22;10518;50.742;4.226;2022-08-19T08:30:47;23.30;99.90
20714;DHT22;10518;50.742;4.226;2022-08-19T08:33:18;23.40;99.90
20714;DHT22;10518;50.742;4.226;2022-08-19T08:35:44;23.20;99.90
20714;DHT22;10518;50.742;4.226;2022-08-19T08:38:11;23.20;99.90
20714;DHT22;10518;50.742;4.226;2022-08-19T08:40:57;23.30;99.90
20714;DHT22;10518;50.742;4.226;2022-08-19T08:43:34;23.30;99.90
20714;DHT22;10518;50.742;4.226;2022-08-19T08:46:04;23.30;99.90
20714;DHT22;10518;50.742;4.226;2022-08-19T08:48:42;23.40;99.90
20714;DHT22;10518;50.742;4.226;2022-08-19T08:51:34;23.50;99.90
20714;DHT22;10518;50.742;4.226;2022-08-19T08:54:02;23.50;99.90
20714;DHT22;10518;50.742;4.226;2022-08-19T08:56:28;23.40;99.90
20714;DHT22;10518;50.742;4.226;2022-08-19T09:01:26;23.40;99.90
20714;DHT22;10518;50.742;4.226;2022-08-19T09:03:52;23.40;99.90
20714;DHT22;10518;50.742;4.226;2022-08-19T09:06:32;23.30;99.90
20714;DHT22;10518;50.742;4.226;2022-08-19T09:16:44;23.60;99.90
20714;DHT22;10518;50.742;4.226;2022-08-19T09:19:10;23.60;99.90
20714;DHT22;10518;50.742;4.226;2022-08-19T09:21:36;23.40;99.90
20714;DHT22;10518;50.742;4.226;2022-08-19T09:24:03;23.40;99.90
20714;DHT22;10518;50.742;4.226;2022-08-19T09:26:30;23.60;99.90
20714;DHT22;10518;50.742;4.226;2022-08-19T09:28:58;23.60;99.90
20714;DHT22;10518;50.742;4.226;2022-08-19T09:31:26;23.50;99.90
20714;DHT22;10518;50.742;4.226;2022-08-19T09:33:53;23.40;99.90
20714;DHT22;10518;50.742;4.226;2022-08-19T09:36:23;23.10;99.90
20714;DHT22;10518;50.742;4.226;2022-08-19T09:38:50;23.10;99.90
20714;DHT22;10518;50.742;4.226;2022-08-19T09:41:19;23.20;99.90
20714;DHT22;10518;50.742;4.226;2022-08-19T09:43:46;23.20;99.90
20714;DHT22;10518;50.742;4.226;2022-08-19T09:46:12;23.10;99.90
20714;DHT22;10518;50.742;4.226;2022-08-19T09:48:40;23.40;99.90
20714;DHT22;10518;50.742;4.226;2022-08-19T09:51:09;23.30;99.90
20714;DHT22;10518;50.742;4.226;2022-08-19T09:53:37;23.40;99.90
20714;DHT22;10518;50.742;4.226;2022-08-19T09:56:04;23.40;99.90
20714;DHT22;10518;50.742;4.226;2022-08-19T09:58:31;23.40;99.90
20714;DHT22;10518;50.742;4.226;2022-08-19T10:00:58;23.40;99.90
20714;DHT22;10518;50.742;4.226;2022-08-19T10:03:24;23.40;99.90
20714;DHT22;10518;50.742;4.226;2022-08-19T10:05:50;23.60;99.90
20714;DHT22;10518;50.742;4.226;2022-08-19T10:08:21;23.60;99.90
20714;DHT22;10518;50.742;4.226;2022-08-19T10:10:47;23.70;99.90
20714;DHT22;10518;50.742;4.226;2022-08-19T10:13:15;23.90;99.90
20714;DHT22;10518;50.742;4.226;2022-08-19T10:15:40;24.00;99.90
20714;DHT22;10518;50.742;4.226;2022-08-19T10:18:07;24.00;99.90
20714;DHT22;10518;50.742;4.226;2022-08-19T10:20:33;24.30;99.90
20714;DHT22;10518;50.742;4.226;2022-08-19T10:23:01;24.50;99.90
20714;DHT22;10518;50.742;4.226;2022-08-19T10:25:27;24.30;99.90
20714;DHT22;10518;50.742;4.226;2022-08-19T10:27:53;24.00;99.90
20714;DHT22;10518;50.742;4.226;2022-08-19T10:30:19;24.00;99.90
20714;DHT22;10518;50.742;4.226;2022-08-19T10:32:45;23.90;99.90
20714;DHT22;10518;50.742;4.226;2022-08-19T10:35:11;23.80;99.90
20714;DHT22;10518;50.742;4.226;2022-08-19T10:37:38;23.80;99.90
20714;DHT22;10518;50.742;4.226;2022-08-19T10:40:07;23.90;99.90
20714;DHT22;10518;50.742;4.226;2022-08-19T10:42:34;23.80;99.90
20714;DHT22;10518;50.742;4.226;2022-08-19T10:44:59;23.70;99.90
20714;DHT22;10518;50.742;4.226;2022-08-19T10:47:25;23.70;99.90
20714;DHT22;10518;50.742;4.226;2022-08-19T10:49:51;23.70;99.90
20714;DHT22;10518;50.742;4.226;2022-08-19T10:52:36;23.70;99.90
20714;DHT22;10518;50.742;4.226;2022-08-19T10:55:06;23.80;99.90
20714;DHT22;10518;50.742;4.226;2022-08-19T10:57:50;23.90;99.90
20714;DHT22;10518;50.742;4.226;2022-08-19T11:00:18;23.90;99.90
20714;DHT22;10518;50.742;4.226;2022-08-19T11:02:44;24.10;99.90
20714;DHT22;10518;50.742;4.226;2022-08-19T11:05:09;24.10;99.90
20714;DHT22;10518;50.742;4.226;2022-08-19T11:07:40;24.20;99.90
20714;DHT22;10518;50.742;4.226;2022-08-19T11:10:06;24.30;99.90
20714;DHT22;10518;50.742;4.226;2022-08-19T11:12:33;24.30;99.90
20714;DHT22;10518;50.742;4.226;2022-08-19T11:14:59;24.50;99.90
20714;DHT22;10518;50.742;4.226;2022-08-19T11:17:25;24.70;99.90
20714;DHT22;10518;50.742;4.226;2022-08-19T11:19:50;24.70;99.90
20714;DHT22;10518;50.742;4.226;2022-08-19T11:22:16;24.60;99.90
20714;DHT22;10518;50.742;4.226;2022-08-19T11:24:42;24.60;99.90
20714;DHT22;10518;50.742;4.226;2022-08-19T11:27:09;24.60;99.90
20714;DHT22;10518;50.742;4.226;2022-08-19T11:29:37;24.50;99.90
20714;DHT22;10518;50.742;4.226;2022-08-19T11:32:06;24.60;99.90
20714;DHT22;10518;50.742;4.226;2022-08-19T11:34:32;24.80;99.90
20714;DHT22;10518;50.742;4.226;2022-08-19T11:36:58;25.10;99.90
20714;DHT22;10518;50.742;4.226;2022-08-19T11:39:26;25.30;99.90
20714;DHT22;10518;50.742;4.226;2022-08-19T11:41:52;25.70;99.90
20714;DHT22;10518;50.742;4.226;2022-08-19T11:44:18;25.90;99.90
20714;DHT22;10518;50.742;4.226;2022-08-19T11:46:45;26.10;99.90
20714;DHT22;10518;50.742;4.226;2022-08-19T11:49:13;26.20;99.90
20714;DHT22;10518;50.742;4.226;2022-08-19T11:51:40;26.40;99.90
20714;DHT22;10518;50.742;4.226;2022-08-19T11:54:08;26.70;99.90
20714;DHT22;10518;50.742;4.226;2022-08-19T11:56:36;26.70;99.90
20714;DHT22;10518;50.742;4.226;2022-08-19T11:59:02;26.80;99.90
20714;DHT22;10518;50.742;4.226;2022-08-19T12:01:28;26.70;99.90
20714;DHT22;10518;50.742;4.226;2022-08-19T12:03:55;26.70;99.90
20714;DHT22;10518;50.742;4.226;2022-08-19T12:06:27;27.00;99.90
20714;DHT22;10518;50.742;4.226;2022-08-19T12:08:58;26.90;99.90
20714;DHT22;10518;50.742;4.226;2022-08-19T12:11:24;26.80;99.90
20714;DHT22;10518;50.742;4.226;2022-08-19T12:13:50;26.50;99.90
20714;DHT22;10518;50.742;4.226;2022-08-19T12:16:18;26.80;99.90
20714;DHT22;10518;50.742;4.226;2022-08-19T12:18:45;26.90;99.90
20714;DHT22;10518;50.742;4.226;2022-08-19T12:21:12;26.60;99.90
20714;DHT22;10518;50.742;4.226;2022-08-19T12:23:40;26.70;99.90
20714;DHT22;10518;50.742;4.226;2022-08-19T12:26:06;26.70;99.90
20714;DHT22;10518;50.742;4.226;2022-08-19T12:28:32;26.80;99.90
20714;DHT22;10518;50.742;4.226;2022-08-19T12:30:57;27.00;99.90
20714;DHT22;10518;50.742;4.226;2022-08-19T12:33:23;27.00;99.90
20714;DHT22;10518;50.742;4.226;2022-08-19T12:35:52;27.00;99.90
20714;DHT22;10518;50.742;4.226;2022-08-19T12:38:18;27.00;99.90
20714;DHT22;10518;50.742;4.226;2022-08-19T12:40:47;27.10;99.90
20714;DHT22;10518;50.742;4.226;2022-08-19T12:43:14;27.00;99.90
20714;DHT22;10518;50.742;4.226;2022-08-19T12:45:41;27.00;99.90
20714;DHT22;10518;50.742;4.226;2022-08-19T12:48:08;26.90;99.90
20714;DHT22;10518;50.742;4.226;2022-08-19T12:50:33;27.10;99.90
20714;DHT22;10518;50.742;4.226;2022-08-19T12:52:59;27.20;99.90
20714;DHT22;10518;50.742;4.226;2022-08-19T12:55:24;27.10;99.90
20714;DHT22;10518;50.742;4.226;2022-08-19T12:57:50;27.40;99.90
20714;DHT22;10518;50.742;4.226;2022-08-19T13:00:19;27.40;99.90
20714;DHT22;10518;50.742;4.226;2022-08-19T13:02:48;27.30;99.90
20714;DHT22;10518;50.742;4.226;2022-08-19T13:05:20;27.30;99.90
20714;DHT22;10518;50.742;4.226;2022-08-19T13:07:49;27.30;99.90
20714;DHT22;10518;50.742;4.226;2022-08-19T13:10:18;27.20;99.90
20714;DHT22;10518;50.742;4.226;2022-08-19T13:12:46;27.20;99.90
20714;DHT22;10518;50.742;4.226;2022-08-19T13:15:13;27.00;99.90
20714;DHT22;10518;50.742;4.226;2022-08-19T13:17:40;26.90;99.90
20714;DHT22;10518;50.742;4.226;2022-08-19T13:20:10;26.70;99.90
20714;DHT22;10518;50.742;4.226;2022-08-19T13:22:37;26.90;99.90
20714;DHT22;10518;50.742;4.226;2022-08-19T13:25:04;27.10;99.90
20714;DHT22;10518;50.742;4.226;2022-08-19T13:27:30;27.20;99.90
20714;DHT22;10518;50.742;4.226;2022-08-19T13:29:56;27.20;99.90
20714;DHT22;10518;50.742;4.226;2022-08-19T13:33:01;27.50;99.90
20714;DHT22;10518;50.742;4.226;2022-08-19T13:35:51;27.80;99.90
20714;DHT22;10518;50.742;4.226;2022-08-19T13:38:21;27.70;99.90
20714;DHT22;10518;50.742;4.226;2022-08-19T13:40:47;27.60;99.90
20714;DHT22;10518;50.742;4.226;2022-08-19T13:43:14;27.20;99.90
20714;DHT22;10518;50.742;4.226;2022-08-19T13:45:41;27.00;99.90
20714;DHT22;10518;50.742;4.226;2022-08-19T13:48:07;26.90;99.90
20714;DHT22;10518;50.742;4.226;2022-08-19T13:50:39;26.80;99.90
20714;DHT22;10518;50.742;4.226;2022-08-19T13:53:09;26.50;99.90
20714;DHT22;10518;50.742;4.226;2022-08-19T13:55:40;26.00;99.90
20714;DHT22;10518;50.742;4.226;2022-08-19T13:58:07;25.90;99.90
20714;DHT22;10518;50.742;4.226;2022-08-19T14:00:36;25.70;99.90
20714;DHT22;10518;50.742;4.226;2022-08-19T14:03:04;25.50;99.90
20714;DHT22;10518;50.742;4.226;2022-08-19T14:05:31;25.30;99.90
20714;DHT22;10518;50.742;4.226;2022-08-19T14:07:57;25.10;99.90
20714;DHT22;10518;50.742;4.226;2022-08-19T14:10:24;24.90;99.90
20714;DHT22;10518;50.742;4.226;2022-08-19T14:12:56;24.80;99.90
20714;DHT22;10518;50.742;4.226;2022-08-19T14:15:24;24.60;99.90
20714;DHT22;10518;50.742;4.226;2022-08-19T14:17:50;24.60;99.90
20714;DHT22;10518;50.742;4.226;2022-08-19T14:20:16;24.60;99.90
20714;DHT22;10518;50.742;4.226;2022-08-19T14:22:43;24.70;99.90
20714;DHT22;10518;50.742;4.226;2022-08-19T14:25:13;24.70;99.90
20714;DHT22;10518;50.742;4.226;2022-08-19T14:27:40;25.00;99.90
20714;DHT22;10518;50.742;4.226;2022-08-19T14:30:08;25.10;99.90
20714;DHT22;10518;50.742;4.226;2022-08-19T14:32:34;25.30;99.90
20714;DHT22;10518;50.742;4.226;2022-08-19T14:35:01;25.50;99.90
20714;DHT22;10518;50.742;4.226;2022-08-19T14:37:27;25.70;99.90
20714;DHT22;10518;50.742;4.226;2022-08-19T14:39:52;26.00;99.90
20714;DHT22;10518;50.742;4.226;2022-08-19T14:42:18;26.30;99.90
20714;DHT22;10518;50.742;4.226;2022-08-19T14:44:44;26.30;99.90
20714;DHT22;10518;50.742;4.226;2022-08-19T14:47:10;26.00;99.90
20714;DHT22;10518;50.742;4.226;2022-08-19T14:49:36;25.90;99.90
20714;DHT22;10518;50.742;4.226;2022-08-19T14:52:02;25.70;99.90
20714;DHT22;10518;50.742;4.226;2022-08-19T14:54:29;25.70;99.90
20714;DHT22;10518;50.742;4.226;2022-08-19T14:56:54;25.50;99.90
20714;DHT22;10518;50.742;4.226;2022-08-19T14:59:20;25.50;99.90
20714;DHT22;10518;50.742;4.226;2022-08-19T15:01:46;25.60;99.90
20714;DHT22;10518;50.742;4.226;2022-08-19T15:04:11;25.70;99.90
20714;DHT22;10518;50.742;4.226;2022-08-19T15:06:37;25.40;99.90
20714;DHT22;10518;50.742;4.226;2022-08-19T15:09:03;25.50;99.90
20714;DHT22;10518;50.742;4.226;2022-08-19T15:11:29;25.60;99.90
20714;DHT22;10518;50.742;4.226;2022-08-19T15:13:58;25.70;99.90
20714;DHT22;10518;50.742;4.226;2022-08-19T15:16:25;25.80;99.90
20714;DHT22;10518;50.742;4.226;2022-08-19T15:18:53;25.90;99.90
20714;DHT22;10518;50.742;4.226;2022-08-19T15:21:20;25.90;99.90
20714;DHT22;10518;50.742;4.226;2022-08-19T15:23:47;26.00;99.90
20714;DHT22;10518;50.742;4.226;2022-08-19T15:26:17;26.20;99.90
20714;DHT22;10518;50.742;4.226;2022-08-19T15:28:44;26.30;99.90
20714;DHT22;10518;50.742;4.226;2022-08-19T15:31:10;26.60;99.90
20714;DHT22;10518;50.742;4.226;2022-08-19T15:33:38;26.90;99.90
20714;DHT22;10518;50.742;4.226;2022-08-19T15:36:08;27.10;99.90
20714;DHT22;10518;50.742;4.226;2022-08-19T15:38:34;26.90;99.90
20714;DHT22;10518;50.742;4.226;2022-08-19T15:41:02;26.50;99.90
20714;DHT22;10518;50.742;4.226;2022-08-19T15:43:46;26.50;99.90
20714;DHT22;10518;50.742;4.226;2022-08-19T15:46:17;26.60;99.90
20714;DHT22;10518;50.742;4.226;2022-08-19T15:48:43;26.70;99.90